sensor_id;sensor_type;location;lat;lon;timestamp;pressure;altitude;pressure_sealevel;temperature;humidity
7052;BME280;3567;52.444;13.556;2023-04-26T00:01:10;101010.41;;;4.81;81.64
7052;BME280;3567;52.444;13.556;2023-04-26T00:03:36;101004.44;;;4.79;82.18
7052;BME280;3567;52.444;13.556;2023-04-26T00:06:01;101007.09;;;4.79;82.94
7052;BME280;3567;52.444;13.556;2023-04-26T00:08:29;101010.97;;;4.76;82.33
7052;BME280;3567;52.444;13.556;2023-04-26T00:10:55;101013.00;;;4.74;82.90
7052;BME280;3567;52.444;13.556;2023-04-26T00:13:20;101013.16;;;4.72;83.01
7052;BME280;3567;52.444;13.556;2023-04-26T00:15:46;101012.72;;;4.69;83.54
7052;BME280;3567;52.444;13.556;2023-04-26T00:18:11;101023.88;;;4.64;84.39
7052;BME280;3567;52.444;13.556;2023-04-26T00:20:36;101008.94;;;4.63;83.50
7052;BME280;3567;52.444;13.556;2023-04-26T00:23:03;101007.28;;;4.62;84.37
7052;BME280;3567;52.444;13.556;2023-04-26T00:25:28;101012.97;;;4.59;84.90
7052;BME280;3567;52.444;13.556;2023-04-26T00:27:54;101012.16;;;4.59;84.21
7052;BME280;3567;52.444;13.556;2023-04-26T00:30:20;101008.69;;;4.58;83.80
7052;BME280;3567;52.444;13.556;2023-04-26T00:32:45;101013.72;;;4.53;85.15
7052;BME280;3567;52.444;13.556;2023-04-26T00:35:12;101010.59;;;4.50;85.09
7052;BME280;3567;52.444;13.556;2023-04-26T00:37:37;101008.28;;;4.46;85.66
7052;BME280;3567;52.444;13.556;2023-04-26T00:40:03;101007.66;;;4.44;85.57
7052;BME280;3567;52.444;13.556;2023-04-26T00:42:29;101005.19;;;4.43;85.39
7052;BME280;3567;52.444;13.556;2023-04-26T00:44:54;101007.84;;;4.43;86.67
7052;BME280;3567;52.444;13.556;2023-04-26T00:47:22;101015.81;;;4.43;86.09
7052;BME280;3567;52.444;13.556;2023-04-26T00:49:47;101019.81;;;4.39;86.77
7052;BME280;3567;52.444;13.556;2023-04-26T00:52:12;101007.72;;;4.36;86.25
7052;BME280;3567;52.444;13.556;2023-04-26T00:54:38;101013.22;;;4.35;85.52
7052;BME280;3567;52.444;13.556;2023-04-26T00:57:03;101016.06;;;4.33;87.38
7052;BME280;3567;52.444;13.556;2023-04-26T00:59:31;101018.91;;;4.32;87.14
7052;BME280;3567;52.444;13.556;2023-04-26T01:01:57;101017.41;;;4.29;87.34
7052;BME280;3567;52.444;13.556;2023-04-26T01:04:24;101018.44;;;4.28;86.46
7052;BME280;3567;52.444;13.556;2023-04-26T01:06:51;101023.25;;;4.25;86.72
7052;BME280;3567;52.444;13.556;2023-04-26T01:09:16;101013.66;;;4.24;87.10
7052;BME280;3567;52.444;13.556;2023-04-26T01:11:43;101019.97;;;4.23;88.08
7052;BME280;3567;52.444;13.556;2023-04-26T01:14:09;101016.84;;;4.19;87.35
7052;BME280;3567;52.444;13.556;2023-04-26T01:16:35;101023.34;;;4.16;87.87
7052;BME280;3567;52.444;13.556;2023-04-26T01:19:09;101017.38;;;4.14;87.10
7052;BME280;3567;52.444;13.556;2023-04-26T01:21:37;101017.09;;;4.09;87.50
7052;BME280;3567;52.444;13.556;2023-04-26T01:24:03;101018.28;;;4.07;87.57
7052;BME280;3567;52.444;13.556;2023-04-26T01:26:29;101025.56;;;4.05;88.48
7052;BME280;3567;52.444;13.556;2023-04-26T01:28:55;101021.47;;;4.02;89.76
7052;BME280;3567;52.444;13.556;2023-04-26T01:31:20;101022.47;;;4.01;89.43
7052;BME280;3567;52.444;13.556;2023-04-26T01:33:46;101021.00;;;3.99;88.66
7052;BME280;3567;52.444;13.556;2023-04-26T01:36:11;101037.91;;;3.98;90.21
7052;BME280;3567;52.444;13.556;2023-04-26T01:38:37;101039.72;;;3.97;89.03
7052;BME280;3567;52.444;13.556;2023-04-26T01:41:02;101040.75;;;3.96;89.87
7052;BME280;3567;52.444;13.556;2023-04-26T01:43:27;101041.75;;;3.95;90.51
7052;BME280;3567;52.444;13.556;2023-04-26T01:45:53;101045.38;;;3.94;89.38
7052;BME280;3567;52.444;13.556;2023-04-26T01:48:18;101049.03;;;3.93;90.56
7052;BME280;3567;52.444;13.556;2023-04-26T01:50:44;101042.28;;;3.90;90.22
7052;BME280;3567;52.444;13.556;2023-04-26T01:53:09;101051.22;;;3.89;90.42
7052;BME280;3567;52.444;13.556;2023-04-26T01:55:35;101059.34;;;3.88;89.81
7052;BME280;3567;52.444;13.556;2023-04-26T01:58:00;101054.22;;;3.86;90.02
7052;BME280;3567;52.444;13.556;2023-04-26T02:00:27;101047.75;;;3.89;89.80
7052;BME280;3567;52.444;13.556;2023-04-26T02:02:56;101043.44;;;3.88;90.08
7052;BME280;3567;52.444;13.556;2023-04-26T02:05:22;101051.38;;;3.88;90.83
7052;BME280;3567;52.444;13.556;2023-04-26T02:07:48;101044.44;;;3.87;90.92
7052;BME280;3567;52.444;13.556;2023-04-26T02:10:13;101043.97;;;3.83;90.80
7052;BME280;3567;52.444;13.556;2023-04-26T02:12:38;101045.16;;;3.81;90.29
7052;BME280;3567;52.444;13.556;2023-04-26T02:15:04;101037.72;;;3.76;90.48
7052;BME280;3567;52.444;13.556;2023-04-26T02:17:30;101044.22;;;3.74;90.38
7052;BME280;3567;52.444;13.556;2023-04-26T02:19:56;101048.22;;;3.70;90.81
7052;BME280;3567;52.444;13.556;2023-04-26T02:22:22;101035.97;;;3.68;91.46
7052;BME280;3567;52.444;13.556;2023-04-26T02:24:50;101043.25;;;3.66;90.83
7052;BME280;3567;52.444;13.556;2023-04-26T02:27:16;101038.47;;;3.62;91.95
7052;BME280;3567;52.444;13.556;2023-04-26T02:29:42;101043.97;;;3.60;92.72
7052;BME280;3567;52.444;13.556;2023-04-26T02:32:07;101037.22;;;3.58;92.88
7052;BME280;3567;52.444;13.556;2023-04-26T02:34:33;101047.81;;;3.58;93.26
7052;BME280;3567;52.444;13.556;2023-04-26T02:36:58;101035.72;;;3.55;92.66
7052;BME280;3567;52.444;13.556;2023-04-26T02:39:24;101038.56;;;3.54;92.45
7052;BME280;3567;52.444;13.556;2023-04-26T02:41:50;101034.41;;;3.51;93.85
7052;BME280;3567;52.444;13.556;2023-04-26T02:44:15;101046.84;;;3.51;93.30
7052;BME280;3567;52.444;13.556;2023-04-26T02:46:41;101049.66;;;3.49;93.34
7052;BME280;3567;52.444;13.556;2023-04-26T02:49:06;101037.75;;;3.45;93.18
7052;BME280;3567;52.444;13.556;2023-04-26T02:51:31;101046.72;;;3.44;93.03
7052;BME280;3567;52.444;13.556;2023-04-26T02:53:57;101043.44;;;3.42;92.91
7052;BME280;3567;52.444;13.556;2023-04-26T02:56:23;101040.09;;;3.40;94.13
7052;BME280;3567;52.444;13.556;2023-04-26T02:58:49;101041.47;;;3.36;93.14
7052;BME280;3567;52.444;13.556;2023-04-26T03:01:14;101046.09;;;3.34;93.48
7052;BME280;3567;52.444;13.556;2023-04-26T03:03:41;101049.94;;;3.31;93.96
7052;BME280;3567;52.444;13.556;2023-04-26T03:06:06;101047.44;;;3.30;93.55
7052;BME280;3567;52.444;13.556;2023-04-26T03:08:32;101047.44;;;3.30;95.36
7052;BME280;3567;52.444;13.556;2023-04-26T03:10:59;101042.16;;;3.30;94.86
7052;BME280;3567;52.444;13.556;2023-04-26T03:13:25;101045.78;;;3.29;93.63
7052;BME280;3567;52.444;13.556;2023-04-26T03:15:50;101034.91;;;3.24;94.97
7052;BME280;3567;52.444;13.556;2023-04-26T03:18:17;101046.69;;;3.21;95.13
7052;BME280;3567;52.444;13.556;2023-04-26T03:20:44;101047.69;;;3.20;95.00
7052;BME280;3567;52.444;13.556;2023-04-26T03:23:10;101049.50;;;3.20;95.23
7052;BME280;3567;52.444;13.556;2023-04-26T03:25:35;101047.81;;;3.19;95.17
7052;BME280;3567;52.444;13.556;2023-04-26T03:28:01;101046.84;;;3.20;96.09
7052;BME280;3567;52.444;13.556;2023-04-26T03:30:28;101051.28;;;3.19;96.42
7052;BME280;3567;52.444;13.556;2023-04-26T03:32:53;101055.44;;;3.22;96.90
7052;BME280;3567;52.444;13.556;2023-04-26T03:35:19;101054.63;;;3.21;96.98
7052;BME280;3567;52.444;13.556;2023-04-26T03:37:44;101059.09;;;3.21;96.52
7052;BME280;3567;52.444;13.556;2023-04-26T03:40:10;101061.75;;;3.21;96.21
7052;BME280;3567;52.444;13.556;2023-04-26T03:42:36;101059.53;;;3.24;95.41
7052;BME280;3567;52.444;13.556;2023-04-26T03:45:02;101067.66;;;3.23;95.95
7052;BME280;3567;52.444;13.556;2023-04-26T03:47:31;101062.56;;;3.21;95.97
7052;BME280;3567;52.444;13.556;2023-04-26T03:49:57;101065.38;;;3.20;97.16
7052;BME280;3567;52.444;13.556;2023-04-26T03:52:22;101065.53;;;3.18;96.63
7052;BME280;3567;52.444;13.556;2023-04-26T03:54:48;101067.34;;;3.18;96.89
7052;BME280;3567;52.444;13.556;2023-04-26T03:57:13;101064.91;;;3.16;96.39
7052;BME280;3567;52.444;13.556;2023-04-26T03:59:38;101056.94;;;3.16;96.75
7052;BME280;3567;52.444;13.556;2023-04-26T04:02:04;101063.06;;;3.17;96.99
7052;BME280;3567;52.444;13.556;2023-04-26T04:04:30;101068.38;;;3.17;97.65
7052;BME280;3567;52.444;13.556;2023-04-26T04:06:55;101072.47;;;3.19;97.03
7052;BME280;3567;52.444;13.556;2023-04-26T04:09:21;101073.31;;;3.20;96.95
7052;BME280;3567;52.444;13.556;2023-04-26T04:11:46;101071.66;;;3.19;97.62
7052;BME280;3567;52.444;13.556;2023-04-26T04:14:11;101078.63;;;3.20;97.69
7052;BME280;3567;52.444;13.556;2023-04-26T04:16:37;101078.63;;;3.20;97.54
7052;BME280;3567;52.444;13.556;2023-04-26T04:19:02;101082.72;;;3.22;97.58
7052;BME280;3567;52.444;13.556;2023-04-26T04:21:28;101083.56;;;3.23;97.61
7052;BME280;3567;52.444;13.556;2023-04-26T04:23:53;101077.44;;;3.22;97.39
7052;BME280;3567;52.444;13.556;2023-04-26T04:26:19;101090.16;;;3.27;97.65
7052;BME280;3567;52.444;13.556;2023-04-26T04:28:45;101086.50;;;3.28;97.71
7052;BME280;3567;52.444;13.556;2023-04-26T04:31:11;101089.81;;;3.30;96.95
7052;BME280;3567;52.444;13.556;2023-04-26T04:33:37;101084.34;;;3.31;96.86
7052;BME280;3567;52.444;13.556;2023-04-26T04:36:03;101081.19;;;3.36;96.41
7052;BME280;3567;52.444;13.556;2023-04-26T04:38:28;101091.44;;;3.39;95.89
7052;BME280;3567;52.444;13.556;2023-04-26T04:40:54;101100.03;;;3.41;96.05
7052;BME280;3567;52.444;13.556;2023-04-26T04:43:19;101099.69;;;3.44;96.36
7052;BME280;3567;52.444;13.556;2023-04-26T04:45:45;101095.03;;;3.46;96.77
7052;BME280;3567;52.444;13.556;2023-04-26T04:48:12;101096.34;;;3.50;95.67
7052;BME280;3567;52.444;13.556;2023-04-26T04:50:38;101097.63;;;3.54;96.22
7052;BME280;3567;52.444;13.556;2023-04-26T04:53:03;101103.25;;;3.59;95.72
7052;BME280;3567;52.444;13.556;2023-04-26T04:55:29;101105.00;;;3.67;95.89
7052;BME280;3567;52.444;13.556;2023-04-26T04:57:54;101105.31;;;3.72;94.97
7052;BME280;3567;52.444;13.556;2023-04-26T05:00:20;101108.75;;;3.81;95.71
7052;BME280;3567;52.444;13.556;2023-04-26T05:02:46;101116.53;;;3.82;94.04
7052;BME280;3567;52.444;13.556;2023-04-26T05:05:11;101121.97;;;3.89;95.71
7052;BME280;3567;52.444;13.556;2023-04-26T05:07:36;101110.00;;;3.93;94.48
7052;BME280;3567;52.444;13.556;2023-04-26T05:10:02;101117.22;;;3.99;94.29
7052;BME280;3567;52.444;13.556;2023-04-26T05:12:28;101107.75;;;4.05;93.41
7052;BME280;3567;52.444;13.556;2023-04-26T05:14:53;101119.84;;;4.07;93.16
7052;BME280;3567;52.444;13.556;2023-04-26T05:17:19;101122.16;;;4.10;92.79
7052;BME280;3567;52.444;13.556;2023-04-26T05:19:44;101124.09;;;4.16;93.58
7052;BME280;3567;52.444;13.556;2023-04-26T05:22:10;101125.38;;;4.20;93.18
7052;BME280;3567;52.444;13.556;2023-04-26T05:24:42;101131.81;;;4.26;93.60
7052;BME280;3567;52.444;13.556;2023-04-26T05:27:07;101134.28;;;4.28;92.17
7052;BME280;3567;52.444;13.556;2023-04-26T05:29:32;101135.69;;;4.38;92.18
7052;BME280;3567;52.444;13.556;2023-04-26T05:31:58;101133.16;;;4.45;91.80
7052;BME280;3567;52.444;13.556;2023-04-26T05:34:23;101134.91;;;4.53;90.96
7052;BME280;3567;52.444;13.556;2023-04-26T05:36:49;101136.41;;;4.70;91.54
7052;BME280;3567;52.444;13.556;2023-04-26T05:39:15;101131.97;;;4.85;90.54
7052;BME280;3567;52.444;13.556;2023-04-26T05:41:41;101128.66;;;4.98;90.36
7052;BME280;3567;52.444;13.556;2023-04-26T05:44:06;101138.94;;;5.01;89.19
7052;BME280;3567;52.444;13.556;2023-04-26T05:46:32;101149.25;;;5.11;89.79
7052;BME280;3567;52.444;13.556;2023-04-26T05:48:57;101146.88;;;5.16;89.66
7052;BME280;3567;52.444;13.556;2023-04-26T05:51:22;101155.69;;;5.16;88.34
7052;BME280;3567;52.444;13.556;2023-04-26T05:53:48;101151.84;;;5.19;88.91
7052;BME280;3567;52.444;13.556;2023-04-26T05:56:13;101146.34;;;5.20;88.74
7052;BME280;3567;52.444;13.556;2023-04-26T05:58:38;101156.41;;;5.25;88.07
7052;BME280;3567;52.444;13.556;2023-04-26T06:01:04;101152.88;;;5.33;87.32
7052;BME280;3567;52.444;13.556;2023-04-26T06:03:30;101154.13;;;5.37;88.40
7052;BME280;3567;52.444;13.556;2023-04-26T06:05:55;101144.16;;;5.39;87.19
7052;BME280;3567;52.444;13.556;2023-04-26T06:08:20;101146.25;;;5.43;86.79
7052;BME280;3567;52.444;13.556;2023-04-26T06:10:46;101154.22;;;5.43;86.73
7052;BME280;3567;52.444;13.556;2023-04-26T06:13:11;101156.97;;;5.50;87.40
7052;BME280;3567;52.444;13.556;2023-04-26T06:15:37;101157.25;;;5.55;86.11
7052;BME280;3567;52.444;13.556;2023-04-26T06:18:04;101158.06;;;5.56;86.25
7052;BME280;3567;52.444;13.556;2023-04-26T06:20:30;101158.97;;;5.63;87.17
7052;BME280;3567;52.444;13.556;2023-04-26T06:22:55;101159.84;;;5.70;86.53
7052;BME280;3567;52.444;13.556;2023-04-26T06:25:20;101164.53;;;5.68;85.14
7052;BME280;3567;52.444;13.556;2023-04-26T06:27:46;101149.97;;;5.64;85.32
7052;BME280;3567;52.444;13.556;2023-04-26T06:30:12;101157.38;;;5.68;86.00
7052;BME280;3567;52.444;13.556;2023-04-26T06:32:40;101160.38;;;5.80;85.48
7052;BME280;3567;52.444;13.556;2023-04-26T06:35:06;101161.88;;;5.97;85.64
7052;BME280;3567;52.444;13.556;2023-04-26T06:37:32;101165.22;;;6.06;85.21
7052;BME280;3567;52.444;13.556;2023-04-26T06:39:57;101165.94;;;6.15;84.57
7052;BME280;3567;52.444;13.556;2023-04-26T06:42:22;101160.88;;;6.20;83.80
7052;BME280;3567;52.444;13.556;2023-04-26T06:44:48;101165.06;;;6.29;83.67
7052;BME280;3567;52.444;13.556;2023-04-26T06:47:13;101162.97;;;6.24;82.08
7052;BME280;3567;52.444;13.556;2023-04-26T06:49:38;101165.44;;;6.26;82.25
7052;BME280;3567;52.444;13.556;2023-04-26T06:52:05;101161.75;;;6.27;82.18
7052;BME280;3567;52.444;13.556;2023-04-26T06:54:31;101162.00;;;6.32;82.87
7052;BME280;3567;52.444;13.556;2023-04-26T06:56:57;101170.50;;;6.42;82.32
7052;BME280;3567;52.444;13.556;2023-04-26T06:59:22;101162.56;;;6.49;82.40
7052;BME280;3567;52.444;13.556;2023-04-26T07:01:48;101173.47;;;6.54;82.26
7052;BME280;3567;52.444;13.556;2023-04-26T07:04:13;101169.22;;;6.60;82.19
7052;BME280;3567;52.444;13.556;2023-04-26T07:06:39;101164.97;;;6.65;81.33
7052;BME280;3567;52.444;13.556;2023-04-26T07:09:05;101166.34;;;6.82;82.03
7052;BME280;3567;52.444;13.556;2023-04-26T07:11:30;101167.69;;;7.00;81.08
7052;BME280;3567;52.444;13.556;2023-04-26T07:13:56;101176.41;;;7.15;79.74
7052;BME280;3567;52.444;13.556;2023-04-26T07:16:22;101172.16;;;7.27;78.85
7052;BME280;3567;52.444;13.556;2023-04-26T07:18:47;101173.69;;;7.43;78.98
7052;BME280;3567;52.444;13.556;2023-04-26T07:21:13;101175.59;;;7.56;79.11
7052;BME280;3567;52.444;13.556;2023-04-26T07:23:39;101171.16;;;7.28;75.17
7052;BME280;3567;52.444;13.556;2023-04-26T07:26:04;101177.66;;;7.19;77.19
7052;BME280;3567;52.444;13.556;2023-04-26T07:28:31;101184.22;;;7.23;77.41
7052;BME280;3567;52.444;13.556;2023-04-26T07:30:57;101173.25;;;7.40;77.04
7052;BME280;3567;52.444;13.556;2023-04-26T07:33:23;101181.34;;;7.59;76.96
7052;BME280;3567;52.444;13.556;2023-04-26T07:35:58;101174.25;;;7.73;76.18
7052;BME280;3567;52.444;13.556;2023-04-26T07:38:25;101169.81;;;7.94;76.26
7052;BME280;3567;52.444;13.556;2023-04-26T07:40:51;101177.25;;;8.18;76.07
7052;BME280;3567;52.444;13.556;2023-04-26T07:43:17;101175.84;;;8.35;73.59
7052;BME280;3567;52.444;13.556;2023-04-26T07:45:43;101177.38;;;8.58;73.40
7052;BME280;3567;52.444;13.556;2023-04-26T07:48:08;101175.72;;;8.70;71.05
7052;BME280;3567;52.444;13.556;2023-04-26T07:50:34;101180.03;;;8.91;71.53
7052;BME280;3567;52.444;13.556;2023-04-26T07:52:59;101172.16;;;9.16;70.57
7052;BME280;3567;52.444;13.556;2023-04-26T07:55:24;101177.53;;;9.23;69.71
7052;BME280;3567;52.444;13.556;2023-04-26T07:57:50;101168.91;;;9.14;65.40
7052;BME280;3567;52.444;13.556;2023-04-26T08:00:16;101171.59;;;8.94;66.25
7052;BME280;3567;52.444;13.556;2023-04-26T08:02:43;101181.47;;;8.80;66.45
7052;BME280;3567;52.444;13.556;2023-04-26T08:05:09;101178.38;;;8.83;67.33
7052;BME280;3567;52.444;13.556;2023-04-26T08:07:35;101172.38;;;9.21;67.44
7052;BME280;3567;52.444;13.556;2023-04-26T08:10:00;101160.84;;;9.34;65.12
7052;BME280;3567;52.444;13.556;2023-04-26T08:12:26;101167.63;;;9.30;65.10
7052;BME280;3567;52.444;13.556;2023-04-26T08:14:51;101167.47;;;9.18;64.39
7052;BME280;3567;52.444;13.556;2023-04-26T08:17:16;101175.69;;;9.03;64.23
7052;BME280;3567;52.444;13.556;2023-04-26T08:19:42;101182.47;;;9.12;64.84
7052;BME280;3567;52.444;13.556;2023-04-26T08:22:07;101173.16;;;9.48;64.78
7052;BME280;3567;52.444;13.556;2023-04-26T08:24:32;101170.94;;;9.83;63.64
7052;BME280;3567;52.444;13.556;2023-04-26T08:26:58;101164.38;;;9.86;62.96
7052;BME280;3567;52.444;13.556;2023-04-26T08:29:24;101170.16;;;9.76;62.03
7052;BME280;3567;52.444;13.556;2023-04-26T08:31:50;101175.78;;;9.61;62.60
7052;BME280;3567;52.444;13.556;2023-04-26T08:34:16;101170.25;;;9.50;62.56
7052;BME280;3567;52.444;13.556;2023-04-26T08:36:42;101167.25;;;9.19;62.69
7052;BME280;3567;52.444;13.556;2023-04-26T08:39:08;101185.16;;;8.92;64.72
7052;BME280;3567;52.444;13.556;2023-04-26T08:41:42;101186.41;;;8.70;65.58
7052;BME280;3567;52.444;13.556;2023-04-26T08:44:08;101184.75;;;8.56;66.37
7052;BME280;3567;52.444;13.556;2023-04-26T08:47:00;101196.63;;;8.47;68.15
7052;BME280;3567;52.444;13.556;2023-04-26T08:49:44;101209.81;;;8.55;69.55
7052;BME280;3567;52.444;13.556;2023-04-26T08:52:12;101204.69;;;9.13;70.51
7052;BME280;3567;52.444;13.556;2023-04-26T08:54:39;101180.50;;;9.66;65.99
7052;BME280;3567;52.444;13.556;2023-04-26T08:57:06;101187.81;;;9.84;66.38
7052;BME280;3567;52.444;13.556;2023-04-26T08:59:33;101198.75;;;9.82;65.49
7052;BME280;3567;52.444;13.556;2023-04-26T09:02:00;101192.25;;;9.52;64.82
7052;BME280;3567;52.444;13.556;2023-04-26T09:04:27;101213.28;;;9.15;67.45
7052;BME280;3567;52.444;13.556;2023-04-26T09:06:55;101217.00;;;8.68;71.21
7052;BME280;3567;52.444;13.556;2023-04-26T09:09:24;101219.22;;;8.44;73.21
7052;BME280;3567;52.444;13.556;2023-04-26T09:11:53;101208.34;;;8.39;74.88
7052;BME280;3567;52.444;13.556;2023-04-26T09:14:18;101210.41;;;8.44;74.42
7052;BME280;3567;52.444;13.556;2023-04-26T09:16:44;101206.13;;;8.69;73.00
7052;BME280;3567;52.444;13.556;2023-04-26T09:19:09;101195.41;;;9.29;73.04
7052;BME280;3567;52.444;13.556;2023-04-26T09:21:42;101190.44;;;9.90;68.17
7052;BME280;3567;52.444;13.556;2023-04-26T09:24:09;101171.97;;;10.27;63.84
7052;BME280;3567;52.444;13.556;2023-04-26T09:26:34;101187.16;;;10.40;64.76
7052;BME280;3567;52.444;13.556;2023-04-26T09:29:16;101166.31;;;10.04;56.66
7052;BME280;3567;52.444;13.556;2023-04-26T09:31:46;101175.03;;;9.92;60.69
7052;BME280;3567;52.444;13.556;2023-04-26T09:34:12;101179.16;;;9.88;58.91
7052;BME280;3567;52.444;13.556;2023-04-26T09:36:55;101179.41;;;9.80;59.37
7052;BME280;3567;52.444;13.556;2023-04-26T09:39:38;101179.03;;;9.70;59.83
7052;BME280;3567;52.444;13.556;2023-04-26T09:42:05;101202.13;;;10.09;61.46
7052;BME280;3567;52.444;13.556;2023-04-26T09:44:31;101173.66;;;10.15;58.62
7052;BME280;3567;52.444;13.556;2023-04-26T09:47:14;101177.63;;;10.06;57.74
7052;BME280;3567;52.444;13.556;2023-04-26T09:49:46;101172.94;;;9.94;57.91
7052;BME280;3567;52.444;13.556;2023-04-26T09:52:13;101197.25;;;9.93;59.01
7052;BME280;3567;52.444;13.556;2023-04-26T09:54:43;101185.66;;;10.06;59.75
7052;BME280;3567;52.444;13.556;2023-04-26T09:57:13;101174.94;;;10.06;57.62
7052;BME280;3567;52.444;13.556;2023-04-26T10:02:17;101181.50;;;10.10;57.30
7052;BME280;3567;52.444;13.556;2023-04-26T10:04:44;101187.91;;;10.09;57.79
7052;BME280;3567;52.444;13.556;2023-04-26T10:07:12;101183.38;;;10.09;58.21
7052;BME280;3567;52.444;13.556;2023-04-26T10:09:38;101185.00;;;10.10;58.42
7052;BME280;3567;52.444;13.556;2023-04-26T10:12:03;101191.19;;;10.11;59.11
7052;BME280;3567;52.444;13.556;2023-04-26T10:14:29;101183.97;;;10.18;56.83
7052;BME280;3567;52.444;13.556;2023-04-26T10:16:55;101179.47;;;10.43;56.42
7052;BME280;3567;52.444;13.556;2023-04-26T10:19:24;101173.00;;;10.83;55.57
7052;BME280;3567;52.444;13.556;2023-04-26T10:21:52;101165.47;;;10.73;53.23
7052;BME280;3567;52.444;13.556;2023-04-26T10:24:18;101172.19;;;10.57;53.83
7052;BME280;3567;52.444;13.556;2023-04-26T10:26:52;101170.09;;;10.28;53.36
7052;BME280;3567;52.444;13.556;2023-04-26T10:29:25;101171.00;;;10.15;54.36
7052;BME280;3567;52.444;13.556;2023-04-26T10:34:27;101177.94;;;10.22;54.85
7052;BME280;3567;52.444;13.556;2023-04-26T10:39:33;101163.00;;;10.46;51.49
7052;BME280;3567;52.444;13.556;2023-04-26T10:42:29;101138.28;;;11.13;49.30
7052;BME280;3567;52.444;13.556;2023-04-26T10:44:57;101128.75;;;11.53;49.45
7052;BME280;3567;52.444;13.556;2023-04-26T10:49:51;101143.50;;;11.44;48.06
7052;BME280;3567;52.444;13.556;2023-04-26T10:52:18;101134.63;;;11.07;46.70
7052;BME280;3567;52.444;13.556;2023-04-26T10:54:52;101148.63;;;10.66;48.13
7052;BME280;3567;52.444;13.556;2023-04-26T10:57:19;101150.13;;;10.30;50.12
7052;BME280;3567;52.444;13.556;2023-04-26T11:02:54;101160.09;;;9.71;51.29
7052;BME280;3567;52.444;13.556;2023-04-26T11:05:46;101166.16;;;9.40;52.44
7052;BME280;3567;52.444;13.556;2023-04-26T11:08:20;101172.16;;;9.29;53.16
7052;BME280;3567;52.444;13.556;2023-04-26T11:10:50;101175.63;;;9.36;53.55
7052;BME280;3567;52.444;13.556;2023-04-26T11:13:16;101176.84;;;9.47;53.72
7052;BME280;3567;52.444;13.556;2023-04-26T11:15:43;101183.56;;;9.63;54.15
7052;BME280;3567;52.444;13.556;2023-04-26T11:18:09;101184.09;;;9.91;54.65
7052;BME280;3567;52.444;13.556;2023-04-26T11:20:34;101179.69;;;10.04;53.61
7052;BME280;3567;52.444;13.556;2023-04-26T11:23:00;101178.03;;;10.09;53.27
7052;BME280;3567;52.444;13.556;2023-04-26T11:25:27;101175.75;;;10.06;52.14
7052;BME280;3567;52.444;13.556;2023-04-26T11:27:59;101173.94;;;10.07;53.23
7052;BME280;3567;52.444;13.556;2023-04-26T11:30:30;101161.81;;;9.97;51.10
7052;BME280;3567;52.444;13.556;2023-04-26T11:32:59;101172.56;;;9.84;51.37
7052;BME280;3567;52.444;13.556;2023-04-26T11:35:25;101172.41;;;9.79;51.54
7052;BME280;3567;52.444;13.556;2023-04-26T11:37:52;101168.16;;;9.65;51.01
7052;BME280;3567;52.444;13.556;2023-04-26T11:40:17;101175.69;;;9.75;51.17
7052;BME280;3567;52.444;13.556;2023-04-26T11:42:43;101174.03;;;9.87;51.02
7052;BME280;3567;52.444;13.556;2023-04-26T11:45:10;101172.50;;;10.04;50.50
7052;BME280;3567;52.444;13.556;2023-04-26T11:47:35;101182.31;;;10.23;51.21
7052;BME280;3567;52.444;13.556;2023-04-26T11:50:01;101176.25;;;10.35;50.30
7052;BME280;3567;52.444;13.556;2023-04-26T11:52:28;101164.91;;;10.39;49.42
7052;BME280;3567;52.444;13.556;2023-04-26T11:55:00;101176.31;;;10.53;49.27
7052;BME280;3567;52.444;13.556;2023-04-26T11:57:31;101159.56;;;10.33;47.98
7052;BME280;3567;52.444;13.556;2023-04-26T12:00:13;101178.88;;;10.41;49.32
7052;BME280;3567;52.444;13.556;2023-04-26T12:02:43;101180.47;;;10.49;49.74
7052;BME280;3567;52.444;13.556;2023-04-26T12:05:08;101177.19;;;10.47;49.78
7052;BME280;3567;52.444;13.556;2023-04-26T12:07:35;101190.88;;;10.39;50.03
7052;BME280;3567;52.444;13.556;2023-04-26T12:10:15;101183.50;;;10.21;51.05
7052;BME280;3567;52.444;13.556;2023-04-26T12:12:46;101196.97;;;10.08;52.62
7052;BME280;3567;52.444;13.556;2023-04-26T12:15:12;101201.59;;;9.87;53.90
7052;BME280;3567;52.444;13.556;2023-04-26T12:17:37;101213.38;;;9.73;54.21
7052;BME280;3567;52.444;13.556;2023-04-26T12:20:10;101214.84;;;9.62;55.27
7052;BME280;3567;52.444;13.556;2023-04-26T12:22:35;101213.66;;;9.52;54.45
7052;BME280;3567;52.444;13.556;2023-04-26T12:25:04;101207.50;;;9.44;53.54
7052;BME280;3567;52.444;13.556;2023-04-26T12:27:34;101205.81;;;9.57;54.30
7052;BME280;3567;52.444;13.556;2023-04-26T12:29:59;101208.78;;;9.93;54.25
7052;BME280;3567;52.444;13.556;2023-04-26T12:32:25;101204.72;;;10.61;53.69
7052;BME280;3567;52.444;13.556;2023-04-26T12:34:51;101185.44;;;11.20;50.15
7052;BME280;3567;52.444;13.556;2023-04-26T12:37:16;101184.19;;;11.41;49.37
7052;BME280;3567;52.444;13.556;2023-04-26T12:39:41;101173.38;;;11.48;48.61
7052;BME280;3567;52.444;13.556;2023-04-26T12:42:08;101163.31;;;11.43;47.23
7052;BME280;3567;52.444;13.556;2023-04-26T12:44:34;101180.00;;;11.27;48.41
7052;BME280;3567;52.444;13.556;2023-04-26T12:47:00;101185.06;;;10.92;48.22
7052;BME280;3567;52.444;13.556;2023-04-26T12:49:26;101188.47;;;10.56;48.97
7052;BME280;3567;52.444;13.556;2023-04-26T12:51:51;101189.59;;;10.41;49.82
7052;BME280;3567;52.444;13.556;2023-04-26T12:54:16;101188.84;;;10.34;50.59
7052;BME280;3567;52.444;13.556;2023-04-26T12:56:42;101181.28;;;10.18;49.47
7052;BME280;3567;52.444;13.556;2023-04-26T12:59:10;101189.72;;;10.15;50.12
7052;BME280;3567;52.444;13.556;2023-04-26T13:01:36;101176.75;;;10.12;50.08
7052;BME280;3567;52.444;13.556;2023-04-26T13:04:01;101192.00;;;10.18;50.28
7052;BME280;3567;52.444;13.556;2023-04-26T13:06:29;101195.06;;;10.28;50.01
7052;BME280;3567;52.444;13.556;2023-04-26T13:08:54;101196.41;;;10.37;49.72
7052;BME280;3567;52.444;13.556;2023-04-26T13:11:20;101192.63;;;10.52;49.76
7052;BME280;3567;52.444;13.556;2023-04-26T13:13:46;101191.47;;;10.91;49.10
7052;BME280;3567;52.444;13.556;2023-04-26T13:16:11;101176.16;;;11.41;47.19
7052;BME280;3567;52.444;13.556;2023-04-26T13:18:37;101175.06;;;12.16;45.71
7052;BME280;3567;52.444;13.556;2023-04-26T13:21:02;101166.25;;;12.50;44.95